createdAt,value
2018-09-02T00:02:02.599Z,4.20
2018-09-02T00:04:31.187Z,5.27
2018-09-02T00:06:59.936Z,4.27
2018-09-02T00:09:28.552Z,4.37
2018-09-02T00:11:57.166Z,4.33
2018-09-02T00:14:25.994Z,4.20
2018-09-02T00:16:54.632Z,4.37
2018-09-02T00:19:23.254Z,4.80
2018-09-02T00:21:51.988Z,4.30
2018-09-02T00:24:20.716Z,4.37
2018-09-02T00:26:49.316Z,4.57
2018-09-02T00:29:18.092Z,4.33
2018-09-02T00:31:46.688Z,4.67
2018-09-02T00:37:08.915Z,4.47
2018-09-02T00:39:37.495Z,4.33
2018-09-02T00:42:06.124Z,4.40
2018-09-02T00:44:34.668Z,3.87
2018-09-02T00:47:03.339Z,4.17
2018-09-02T00:49:31.915Z,4.30
2018-09-02T00:52:00.515Z,4.23
2018-09-02T00:54:29.108Z,4.43
2018-09-02T00:56:57.768Z,4.80
2018-09-02T00:59:27.247Z,3.87
2018-09-02T01:01:55.838Z,4.47
2018-09-02T01:04:24.704Z,4.40
2018-09-02T01:06:53.673Z,4.37
2018-09-02T01:09:22.254Z,4.40
2018-09-02T01:11:50.825Z,3.87
2018-09-02T01:14:19.628Z,3.60
2018-09-02T01:16:48.211Z,4.20
2018-09-02T01:19:16.971Z,4.13
2018-09-02T01:21:46.132Z,4.10
2018-09-02T01:24:14.686Z,4.00
2018-09-02T01:26:43.243Z,4.77
2018-09-02T01:29:11.831Z,4.10
2018-09-02T01:31:40.479Z,4.03
2018-09-02T01:34:09.038Z,4.07
2018-09-02T01:36:37.758Z,4.30
2018-09-02T01:39:07.106Z,4.83
2018-09-02T01:41:35.875Z,4.40
2018-09-02T01:44:04.474Z,4.70
2018-09-02T01:46:34.168Z,4.37
2018-09-02T01:49:02.725Z,4.10
2018-09-02T01:51:31.468Z,4.30
2018-09-02T01:54:00.041Z,4.67
2018-09-02T01:56:28.705Z,4.10
2018-09-02T01:58:57.431Z,4.40
2018-09-02T02:01:25.995Z,4.10
2018-09-02T02:03:54.565Z,4.17
2018-09-02T02:06:23.173Z,3.70
2018-09-02T02:08:51.793Z,4.33
2018-09-02T02:11:20.356Z,4.73
2018-09-02T02:13:48.972Z,4.63
2018-09-02T02:16:17.596Z,4.40
2018-09-02T02:18:46.179Z,4.47
2018-09-02T02:21:15.032Z,4.53
2018-09-02T02:23:44.122Z,4.30
2018-09-02T02:26:12.793Z,4.57
2018-09-02T02:28:41.834Z,4.47
2018-09-02T02:31:10.435Z,4.13
2018-09-02T02:33:39.004Z,4.87
2018-09-02T02:36:07.567Z,4.07
2018-09-02T02:38:36.781Z,4.10
2018-09-02T02:41:05.366Z,3.93
2018-09-02T02:43:33.944Z,4.57
2018-09-02T02:46:02.557Z,4.27
2018-09-02T02:48:31.103Z,4.33
2018-09-02T02:50:59.843Z,4.30
2018-09-02T02:53:28.417Z,4.60
2018-09-02T02:55:57.621Z,3.80
2018-09-02T02:58:26.191Z,4.13
2018-09-02T03:00:54.774Z,4.40
2018-09-02T03:03:23.316Z,4.00
2018-09-02T03:05:51.917Z,4.30
2018-09-02T03:08:21.461Z,4.50
2018-09-02T03:10:50.439Z,4.23
2018-09-02T03:13:19.011Z,4.00
2018-09-02T03:15:48.563Z,4.33
2018-09-02T03:18:17.134Z,3.53
2018-09-02T03:20:45.725Z,4.20
2018-09-02T03:23:14.282Z,4.60
2018-09-02T03:25:42.875Z,4.43
2018-09-02T03:28:12.429Z,3.97
2018-09-02T03:30:40.988Z,4.63
2018-09-02T03:33:09.582Z,4.73
2018-09-02T03:35:38.129Z,3.93
2018-09-02T03:38:06.726Z,4.03
2018-09-02T03:40:35.270Z,4.50
2018-09-02T03:43:03.992Z,4.67
2018-09-02T03:45:32.576Z,4.10
2018-09-02T03:48:01.135Z,4.40
2018-09-02T03:50:30.035Z,4.93
2018-09-02T03:52:58.578Z,4.80
2018-09-02T03:55:27.154Z,4.80
2018-09-02T03:57:55.740Z,4.10
2018-09-02T04:00:24.299Z,4.50
2018-09-02T04:02:53.408Z,4.40
2018-09-02T04:05:22.104Z,4.43
2018-09-02T04:07:50.685Z,4.30
2018-09-02T04:10:19.275Z,4.60
2018-09-02T04:12:48.072Z,4.67
2018-09-02T04:15:16.658Z,4.53
2018-09-02T04:17:45.224Z,4.67
2018-09-02T04:20:13.812Z,4.63
2018-09-02T04:22:42.403Z,3.80
2018-09-02T04:25:11.035Z,4.43
2018-09-02T04:27:39.585Z,4.10
2018-09-02T04:30:08.149Z,4.20
2018-09-02T04:32:36.715Z,4.37
2018-09-02T04:35:05.263Z,5.07
2018-09-02T04:37:34.065Z,4.70
2018-09-02T04:40:02.667Z,4.50
2018-09-02T04:42:31.631Z,4.53
2018-09-02T04:45:00.262Z,3.93
2018-09-02T04:47:28.971Z,4.67
2018-09-02T04:49:57.612Z,4.90
2018-09-02T04:52:26.167Z,4.77
2018-09-02T04:54:54.723Z,4.70
2018-09-02T04:57:23.280Z,5.00
2018-09-02T04:59:51.871Z,5.27
2018-09-02T05:02:20.455Z,5.30
2018-09-02T05:04:49.002Z,4.33
2018-09-02T05:07:17.578Z,4.90
2018-09-02T05:09:46.295Z,5.03
2018-09-02T05:12:14.846Z,4.60
2018-09-02T05:14:43.468Z,5.90
2018-09-02T05:17:12.175Z,4.93
2018-09-02T05:19:40.787Z,5.17
2018-09-02T05:22:09.447Z,4.73
2018-09-02T05:24:38.031Z,5.10
2018-09-02T05:27:06.663Z,5.37
2018-09-02T05:29:35.568Z,5.37
2018-09-02T05:32:04.223Z,5.00
2018-09-02T05:34:32.844Z,4.90
2018-09-02T05:37:01.582Z,5.33
2018-09-02T05:39:30.134Z,5.37
2018-09-02T05:41:58.688Z,5.40
2018-09-02T05:44:27.255Z,5.00
2018-09-02T05:46:55.990Z,5.20
2018-09-02T05:49:24.564Z,5.93
2018-09-02T05:51:53.155Z,4.77
2018-09-02T05:54:21.920Z,5.60
2018-09-02T05:56:50.525Z,6.17
2018-09-02T05:59:19.303Z,4.97
2018-09-02T06:01:48.187Z,5.20
2018-09-02T06:04:16.793Z,5.50
2018-09-02T06:06:45.396Z,4.87
2018-09-02T06:09:14.172Z,5.77
2018-09-02T06:11:42.771Z,5.13
2018-09-02T06:14:11.871Z,5.37
2018-09-02T06:16:40.651Z,4.97
2018-09-02T06:19:09.211Z,5.13
2018-09-02T06:21:37.815Z,5.70
2018-09-02T06:24:07.207Z,5.07
2018-09-02T06:26:35.870Z,5.33
2018-09-02T06:29:04.470Z,5.50
2018-09-02T06:31:33.195Z,4.90
2018-09-02T06:34:01.859Z,5.20
2018-09-02T06:36:30.440Z,5.73
2018-09-02T06:38:59.017Z,5.40
2018-09-02T06:41:28.430Z,5.47
2018-09-02T06:43:57.089Z,4.90
2018-09-02T06:46:25.667Z,5.27
2018-09-02T06:48:54.619Z,6.07
2018-09-02T06:51:23.295Z,5.43
2018-09-02T06:53:52.581Z,4.90
2018-09-02T06:56:21.172Z,5.10
2018-09-02T06:58:49.727Z,4.67
2018-09-02T07:01:18.352Z,5.57
2018-09-02T07:03:46.927Z,5.40
2018-09-02T07:06:15.639Z,5.77
2018-09-02T07:08:44.209Z,5.80
2018-09-02T07:11:13.282Z,5.40
2018-09-02T07:13:41.852Z,5.23
2018-09-02T07:16:10.578Z,5.87
2018-09-02T07:18:39.151Z,4.97
2018-09-02T07:21:07.704Z,5.70
2018-09-02T07:23:36.582Z,4.60
2018-09-02T07:26:05.303Z,4.87
2018-09-02T07:28:33.869Z,4.73
2018-09-02T07:31:02.643Z,4.90
2018-09-02T07:33:31.235Z,4.90
2018-09-02T07:36:00.779Z,5.07
2018-09-02T07:38:29.479Z,5.73
2018-09-02T07:40:58.226Z,5.47
2018-09-02T07:43:26.932Z,4.77
2018-09-02T07:45:55.659Z,5.03
2018-09-02T07:48:24.205Z,5.57
2018-09-02T07:50:52.772Z,5.70
2018-09-02T07:53:21.383Z,5.60
2018-09-02T07:55:50.201Z,5.00
2018-09-02T07:58:18.754Z,5.70
2018-09-02T08:00:47.802Z,5.60
2018-09-02T08:03:16.383Z,5.97
2018-09-02T08:05:45.113Z,5.33
2018-09-02T08:08:13.969Z,5.13
2018-09-02T08:10:43.407Z,5.33
2018-09-02T08:13:11.984Z,5.73
2018-09-02T08:15:40.561Z,5.30
2018-09-02T08:18:09.222Z,5.23
2018-09-02T08:20:37.914Z,5.63
2018-09-02T08:23:06.538Z,5.23
2018-09-02T08:25:35.105Z,5.53
2018-09-02T08:28:03.721Z,5.53
2018-09-02T08:30:32.327Z,5.77
2018-09-02T08:33:01.081Z,6.00
2018-09-02T08:35:29.659Z,5.33
2018-09-02T08:37:58.400Z,5.57
2018-09-02T08:40:27.039Z,5.70
2018-09-02T08:42:55.751Z,5.13
2018-09-02T08:45:24.663Z,5.40
2018-09-02T08:47:53.235Z,5.30
2018-09-02T08:50:21.911Z,5.17
2018-09-02T08:52:50.582Z,5.27
2018-09-02T08:55:19.149Z,5.97
2018-09-02T08:57:47.747Z,5.10
2018-09-02T09:00:17.686Z,5.20
2018-09-02T09:02:47.628Z,5.73
2018-09-02T09:05:17.279Z,5.07
2018-09-02T09:07:46.020Z,5.70
2018-09-02T09:10:14.547Z,5.17
2018-09-02T09:12:43.301Z,5.07
2018-09-02T09:15:11.918Z,5.00
2018-09-02T09:17:40.500Z,4.93
2018-09-02T09:20:09.339Z,4.77
2018-09-02T09:22:38.885Z,4.87
2018-09-02T09:25:08.941Z,4.70
2018-09-02T09:27:37.792Z,5.30
2018-09-02T09:30:08.014Z,5.57
2018-09-02T09:32:36.595Z,5.23
2018-09-02T09:35:05.490Z,4.60
2018-09-02T09:37:34.089Z,4.47
2018-09-02T09:40:02.795Z,5.07
2018-09-02T09:42:31.340Z,6.00
2018-09-02T09:44:59.921Z,5.07
2018-09-02T09:47:28.567Z,4.43
2018-09-02T09:49:57.200Z,4.27
2018-09-02T09:52:25.970Z,4.53
2018-09-02T09:54:54.642Z,4.67
2018-09-02T09:57:23.336Z,4.10
2018-09-02T09:59:52.785Z,4.63
2018-09-02T10:02:21.429Z,4.93
2018-09-02T10:04:50.020Z,4.43
2018-09-02T10:07:19.100Z,3.97
2018-09-02T10:09:48.841Z,5.20
2018-09-02T10:12:17.460Z,4.27
2018-09-02T10:14:46.271Z,4.70
2018-09-02T10:17:14.861Z,3.77
2018-09-02T10:19:43.531Z,4.33
2018-09-02T10:22:12.083Z,4.13
2018-09-02T10:24:40.680Z,4.90
2018-09-02T10:27:09.466Z,4.33
2018-09-02T10:29:38.046Z,5.00
2018-09-02T10:32:06.728Z,4.50
2018-09-02T10:34:36.053Z,5.10
2018-09-02T10:37:04.862Z,3.97
2018-09-02T10:39:33.491Z,4.07
2018-09-02T10:42:02.154Z,4.20
2018-09-02T10:44:30.743Z,5.40
2018-09-02T10:46:59.984Z,4.73
2018-09-02T10:49:28.698Z,4.60
2018-09-02T10:51:57.333Z,4.20
2018-09-02T10:54:25.907Z,4.43
2018-09-02T10:56:54.456Z,4.47
2018-09-02T10:59:33.617Z,4.20
2018-09-02T11:02:02.328Z,4.67
2018-09-02T11:04:30.873Z,4.43
2018-09-02T11:06:59.862Z,4.70
2018-09-02T11:09:28.451Z,3.93
2018-09-02T11:11:57.105Z,4.37
2018-09-02T11:14:26.264Z,3.50
2018-09-02T11:16:54.975Z,4.10
2018-09-02T11:19:23.531Z,5.03
2018-09-02T11:21:52.246Z,4.83
2018-09-02T11:24:20.838Z,4.60
2018-09-02T11:26:49.416Z,4.40
2018-09-02T11:29:18.009Z,4.33
2018-09-02T11:31:46.599Z,4.00
2018-09-02T11:34:15.213Z,4.30
2018-09-02T11:36:43.815Z,3.40
2018-09-02T11:39:12.418Z,4.08
2018-09-02T11:41:41.019Z,4.53
2018-09-02T11:44:09.947Z,3.80
2018-09-02T11:46:38.652Z,3.90
2018-09-02T11:49:07.526Z,4.53
2018-09-02T11:51:36.115Z,5.28
2018-09-02T11:54:04.691Z,4.13
2018-09-02T11:56:34.335Z,4.78
2018-09-02T11:59:03.663Z,4.43
2018-09-02T12:01:32.280Z,4.22
2018-09-02T12:04:01.080Z,3.92
2018-09-02T12:06:29.992Z,3.83
2018-09-02T12:08:59.247Z,4.15
2018-09-02T12:11:27.876Z,3.87
2018-09-02T12:13:57.054Z,4.33
2018-09-02T12:16:25.569Z,4.00
2018-09-02T12:18:54.234Z,3.72
2018-09-02T12:21:22.820Z,3.42
2018-09-02T12:23:51.465Z,3.47
2018-09-02T12:26:20.046Z,2.90
2018-09-02T12:28:48.720Z,3.37
2018-09-02T12:31:17.375Z,2.47
2018-09-02T12:33:46.000Z,2.80
2018-09-02T12:36:14.594Z,3.15
2018-09-02T12:38:43.520Z,2.72
2018-09-02T12:41:12.116Z,3.13
2018-09-02T12:43:40.677Z,2.77
2018-09-02T12:46:09.407Z,2.73
2018-09-02T12:48:38.851Z,3.13
2018-09-02T12:51:07.696Z,2.67
2018-09-02T12:53:36.442Z,3.07
2018-09-02T12:56:05.196Z,2.80
2018-09-02T12:58:33.785Z,3.07
2018-09-02T13:01:02.384Z,3.20
2018-09-02T13:03:31.254Z,2.55
2018-09-02T13:06:00.015Z,3.47
2018-09-02T13:08:29.045Z,3.30
2018-09-02T13:10:57.666Z,3.42
2018-09-02T13:13:26.287Z,3.20
2018-09-02T13:15:56.027Z,3.37
2018-09-02T13:18:24.623Z,3.85
2018-09-02T13:20:53.375Z,3.90
2018-09-02T13:23:21.966Z,3.23
2018-09-02T13:25:50.544Z,4.30
2018-09-02T13:28:19.167Z,2.98
2018-09-02T13:30:47.746Z,2.58
2018-09-02T13:33:18.264Z,3.02
2018-09-02T13:35:46.852Z,3.07
2018-09-02T13:38:15.415Z,3.00
2018-09-02T13:40:44.939Z,2.85
2018-09-02T13:43:13.561Z,3.15
2018-09-02T13:45:43.651Z,2.90
2018-09-02T13:48:13.010Z,3.03
2018-09-02T13:50:41.591Z,2.95
2018-09-02T13:53:10.603Z,3.10
2018-09-02T13:55:39.200Z,2.95
2018-09-02T13:58:07.888Z,3.10
2018-09-02T14:00:36.776Z,2.73
2018-09-02T14:03:05.459Z,3.10
2018-09-02T14:05:35.271Z,2.50
2018-09-02T14:08:04.020Z,2.97
2018-09-02T14:10:32.754Z,2.50
2018-09-02T14:13:01.394Z,2.27
2018-09-02T14:15:31.034Z,2.50
2018-09-02T14:17:59.687Z,2.60
2018-09-02T14:20:28.489Z,2.20
2018-09-02T14:22:57.120Z,2.47
2018-09-02T14:25:25.690Z,1.97
2018-09-02T14:27:54.880Z,2.57
2018-09-02T14:30:23.451Z,2.60
2018-09-02T14:32:52.107Z,2.23
2018-09-02T14:35:20.767Z,2.70
2018-09-02T14:37:49.729Z,2.37
2018-09-02T14:40:18.336Z,2.73
2018-09-02T14:42:46.915Z,2.40
2018-09-02T14:45:15.470Z,2.77
2018-09-02T14:47:44.034Z,2.17
2018-09-02T14:50:12.654Z,1.77
2018-09-02T14:52:41.195Z,2.37
2018-09-02T14:55:09.818Z,2.47
2018-09-02T14:57:38.842Z,3.20
2018-09-02T15:00:07.432Z,2.70
2018-09-02T15:02:35.994Z,2.57
2018-09-02T15:05:04.600Z,2.40
2018-09-02T15:07:33.205Z,2.50
2018-09-02T15:10:01.866Z,2.50
2018-09-02T15:12:30.435Z,2.17
2018-09-02T15:14:58.974Z,2.40
2018-09-02T15:17:27.598Z,2.40
2018-09-02T15:19:56.402Z,2.43
2018-09-02T15:22:25.167Z,2.50
2018-09-02T15:24:53.751Z,1.90
2018-09-02T15:27:22.762Z,2.80
2018-09-02T15:29:51.249Z,2.70
2018-09-02T15:32:19.847Z,2.20
2018-09-02T15:34:48.471Z,2.17
2018-09-02T15:37:17.782Z,2.33
2018-09-02T15:39:47.439Z,3.50
2018-09-02T15:42:15.996Z,2.60
2018-09-02T15:44:45.121Z,2.30
2018-09-02T15:47:14.088Z,2.30
2018-09-02T15:49:42.671Z,2.20
2018-09-02T15:52:11.295Z,2.27
2018-09-02T15:54:39.857Z,2.60
2018-09-02T15:57:09.368Z,2.13
2018-09-02T15:59:38.623Z,2.13
2018-09-02T16:02:07.614Z,1.87
2018-09-02T16:04:36.195Z,2.20
2018-09-02T16:07:04.743Z,2.30
2018-09-02T16:09:33.328Z,2.50
2018-09-02T16:12:01.896Z,2.30
2018-09-02T16:14:30.500Z,2.80
2018-09-02T16:16:59.044Z,2.60
2018-09-02T16:19:28.190Z,2.77
2018-09-02T16:21:56.898Z,2.47
2018-09-02T16:24:26.404Z,2.80
2018-09-02T16:26:54.957Z,2.90
2018-09-02T16:29:23.631Z,2.60
2018-09-02T16:31:52.131Z,2.40
2018-09-02T16:34:21.990Z,2.70
2018-09-02T16:36:50.551Z,2.23
2018-09-02T16:39:19.119Z,3.03
2018-09-02T16:41:47.947Z,3.10
2018-09-02T16:44:17.229Z,2.90
2018-09-02T16:46:45.804Z,2.70
2018-09-02T16:49:14.571Z,2.70
2018-09-02T16:51:43.279Z,2.60
2018-09-02T16:54:12.753Z,2.73
2018-09-02T16:56:41.552Z,3.10
2018-09-02T16:59:10.308Z,2.87
2018-09-02T17:01:39.063Z,2.80
2018-09-02T17:04:09.179Z,2.67
2018-09-02T17:06:37.967Z,2.77
2018-09-02T17:09:08.892Z,3.10
2018-09-02T17:11:38.045Z,3.00
2018-09-02T17:14:07.191Z,3.23
2018-09-02T17:16:35.732Z,3.00
2018-09-02T17:19:08.515Z,2.70
2018-09-02T17:21:37.154Z,3.00
2018-09-02T17:24:05.739Z,3.17
2018-09-02T17:26:34.305Z,2.47
2018-09-02T17:29:03.661Z,2.80
2018-09-02T17:31:32.278Z,2.50
2018-09-02T17:34:00.864Z,2.83
2018-09-02T17:36:29.494Z,2.77
2018-09-02T17:39:00.154Z,2.70
2018-09-02T17:41:30.828Z,2.77
2018-09-02T17:43:59.653Z,2.50
2018-09-02T17:46:29.615Z,2.37
2018-09-02T17:48:58.342Z,2.60
2018-09-02T17:51:26.982Z,2.60
2018-09-02T17:53:55.708Z,2.43
2018-09-02T17:56:24.283Z,2.70
2018-09-02T17:58:52.958Z,2.87
2018-09-02T18:01:23.894Z,2.20
2018-09-02T18:04:01.415Z,2.63
2018-09-02T18:06:30.303Z,2.00
2018-09-02T18:08:59.868Z,3.03
2018-09-02T18:11:28.470Z,3.00
2018-09-02T18:13:57.438Z,2.70
2018-09-02T18:16:33.434Z,2.10
2018-09-02T18:19:03.864Z,2.70
2018-09-02T18:21:35.529Z,2.83
2018-09-02T18:24:05.776Z,2.60
2018-09-02T18:26:35.531Z,2.60
2018-09-02T18:29:05.402Z,2.53
2018-09-02T18:31:35.600Z,2.85
2018-09-02T18:34:07.486Z,2.87
2018-09-02T18:36:46.408Z,2.50
2018-09-02T18:39:16.452Z,2.87
2018-09-02T18:41:46.369Z,3.00
2018-09-02T18:44:16.108Z,2.60
2018-09-02T18:46:50.420Z,2.57
2018-09-02T18:49:19.090Z,2.83
2018-09-02T18:51:50.323Z,2.80
2018-09-02T18:54:33.348Z,2.77
2018-09-02T18:57:03.713Z,2.40
2018-09-02T18:59:36.598Z,2.70
2018-09-02T19:02:06.012Z,2.40
2018-09-02T19:04:34.619Z,2.70
2018-09-02T19:07:03.317Z,2.73
2018-09-02T19:09:32.904Z,2.53
2018-09-02T19:12:03.891Z,2.90
2018-09-02T19:14:33.242Z,2.67
2018-09-02T19:23:14.807Z,3.00
2018-09-02T19:25:45.498Z,2.87
2018-09-02T19:28:18.567Z,2.90
2018-09-02T19:30:48.350Z,3.00
2018-09-02T19:33:18.136Z,3.20
2018-09-02T19:35:50.228Z,3.00
2018-09-02T19:38:20.788Z,2.90
2018-09-02T19:40:51.348Z,2.97
2018-09-02T19:43:22.437Z,3.17
2018-09-02T19:45:51.853Z,3.58
2018-09-02T19:48:20.756Z,3.40
2018-09-02T19:50:50.092Z,3.43
2018-09-02T19:53:20.743Z,2.97
2018-09-02T19:55:49.354Z,3.13
2018-09-02T19:58:17.983Z,3.60
2018-09-02T20:00:47.090Z,3.87
2018-09-02T20:03:15.703Z,3.47
2018-09-02T20:05:44.327Z,3.47
2018-09-02T20:08:12.983Z,3.50
2018-09-02T20:10:42.714Z,3.67
2018-09-02T20:13:11.279Z,3.67
2018-09-02T20:15:40.397Z,3.37
2018-09-02T20:18:09.495Z,3.50
2018-09-02T20:20:40.348Z,3.90
2018-09-02T20:23:08.936Z,3.70
2018-09-02T20:25:37.527Z,3.50
2018-09-02T20:28:06.217Z,3.27
2018-09-02T20:30:34.957Z,3.40
2018-09-02T20:33:03.618Z,4.10
2018-09-02T20:35:33.700Z,3.60
2018-09-02T20:38:04.484Z,4.00
2018-09-02T20:40:33.795Z,4.27
2018-09-02T20:43:02.409Z,3.77
2018-09-02T20:45:32.195Z,3.63
2018-09-02T20:48:01.670Z,4.40
2018-09-02T20:50:31.807Z,3.83
2018-09-02T20:53:03.981Z,4.20
2018-09-02T20:55:34.847Z,4.10
2018-09-02T20:58:05.057Z,4.47
2018-09-02T21:00:37.060Z,4.00
2018-09-02T21:03:06.922Z,4.77
2018-09-02T21:05:35.540Z,4.27
2018-09-02T21:08:04.203Z,4.60
2018-09-02T21:10:33.280Z,4.30
2018-09-02T21:13:01.982Z,4.27
2018-09-02T21:20:22.791Z,4.23
2018-09-02T21:22:51.361Z,5.00
2018-09-02T21:25:19.995Z,4.70
2018-09-02T21:27:48.640Z,4.37
2018-09-02T21:30:17.744Z,4.47
2018-09-02T21:32:47.847Z,4.80
2018-09-02T21:35:17.722Z,4.20
2018-09-02T21:37:46.911Z,5.17
2018-09-02T21:40:15.993Z,4.90
2018-09-02T21:42:44.586Z,4.90
2018-09-02T21:45:16.626Z,5.47
2018-09-02T21:47:57.908Z,4.93
2018-09-02T21:50:30.593Z,5.13
2018-09-02T21:53:03.705Z,4.93
2018-09-02T21:55:34.687Z,5.40
2018-09-02T21:58:03.714Z,5.13
2018-09-02T22:00:33.003Z,4.80
2018-09-02T22:03:01.572Z,4.90
2018-09-02T22:05:31.082Z,5.13
2018-09-02T22:08:00.095Z,5.30
2018-09-02T22:10:29.638Z,4.43
2018-09-02T22:12:58.451Z,4.87
2018-09-02T22:15:27.104Z,5.00
2018-09-02T22:17:55.711Z,5.23
2018-09-02T22:20:24.275Z,5.17
2018-09-02T22:22:53.092Z,4.57
2018-09-02T22:25:21.732Z,5.23
2018-09-02T22:27:50.322Z,5.47
2018-09-02T22:30:19.244Z,4.90
2018-09-02T22:32:47.806Z,4.93
2018-09-02T22:35:16.866Z,4.97
2018-09-02T22:37:45.871Z,5.40
2018-09-02T22:40:16.191Z,5.00
2018-09-02T22:42:46.168Z,5.00
2018-09-02T22:45:14.723Z,5.30
2018-09-02T22:47:43.362Z,4.47
2018-09-02T22:50:12.083Z,4.83
2018-09-02T22:52:40.654Z,5.57
2018-09-02T22:55:09.441Z,4.67
2018-09-02T22:57:38.932Z,4.77
2018-09-02T23:00:10.099Z,4.00
2018-09-02T23:02:38.703Z,4.97
2018-09-02T23:05:07.875Z,4.53
2018-09-02T23:07:36.456Z,4.70
2018-09-02T23:10:05.040Z,4.60
2018-09-02T23:12:33.665Z,4.87
2018-09-02T23:15:03.194Z,4.60
2018-09-02T23:17:31.786Z,4.57
2018-09-02T23:20:01.110Z,4.70
2018-09-02T23:22:29.702Z,4.67
2018-09-02T23:24:58.874Z,4.30
2018-09-02T23:27:27.476Z,5.30
2018-09-02T23:29:56.811Z,4.57
2018-09-02T23:32:26.806Z,5.33
2018-09-02T23:34:57.326Z,4.90
2018-09-02T23:37:25.915Z,4.90
2018-09-02T23:39:54.535Z,5.50
2018-09-02T23:42:23.116Z,4.80
2018-09-02T23:44:51.727Z,5.07
2018-09-02T23:47:21.047Z,5.43
2018-09-02T23:49:49.631Z,5.10
2018-09-02T23:52:18.269Z,5.40
2018-09-02T23:54:47.166Z,5.70
2018-09-02T23:57:15.749Z,5.63
2018-09-02T23:59:44.372Z,5.73
